Time;durP1;ratioP1;P1;durP2;ratioP2;P2;SDS_P1;SDS_P2;PMS_P1;PMS_P2;Temp;Humidity;BMP_temperature;BMP_pressure;BME280_temperature;BME280_humidity;BME280_pressure;Samples;Min_cycle;Max_cycle;Signal;HPM_P1;HPM_P2
2023/07/28 00:02:28;;;;;;;7.32;4.93;;;;;;;;;;21022669;28;20123;-64
2023/07/28 00:12:29;;;;;;;7.90;4.40;;;;;;;;;;21022911;28;20540;-64
2023/07/28 00:22:30;;;;;;;6.75;4.00;;;;;;;;;;21022418;28;20186;-64
2023/07/28 00:32:31;;;;;;;5.45;3.92;;;;;;;;;;21023190;28;20397;-64
2023/07/28 00:42:32;;;;;;;11.00;4.28;;;;;;;;;;21022757;28;20072;-64
2023/07/28 00:52:34;;;;;;;5.65;3.67;;;;;;;;;;21022321;28;20563;-64
2023/07/28 01:02:35;;;;;;;5.97;3.33;;;;;;;;;;21021963;28;20563;-63
2023/07/28 01:12:36;;;;;;;7.00;3.97;;;;;;;;;;21008145;28;20056;-64
2023/07/28 01:22:37;;;;;;;5.85;3.95;;;;;;;;;;21007592;28;20041;-64
2023/07/28 01:32:38;;;;;;;5.75;3.45;;;;;;;;;;21006606;28;20058;-64
2023/07/28 01:42:39;;;;;;;6.10;3.40;;;;;;;;;;21006708;28;20405;-63
2023/07/28 01:52:40;;;;;;;7.93;3.80;;;;;;;;;;21003823;28;20198;-64
2023/07/28 02:02:41;;;;;;;7.15;3.58;;;;;;;;;;21004237;28;20394;-65
2023/07/28 02:12:43;;;;;;;7.35;4.25;;;;;;;;;;21003949;28;20131;-64
2023/07/28 02:22:44;;;;;;;6.07;3.70;;;;;;;;;;21001501;28;20060;-64
2023/07/28 02:32:45;;;;;;;6.75;3.90;;;;;;;;;;21001923;28;20397;-64
2023/07/28 02:42:46;;;;;;;6.10;3.78;;;;;;;;;;21001087;28;20201;-64
2023/07/28 02:52:47;;;;;;;8.85;4.00;;;;;;;;;;21000126;28;20044;-64
2023/07/28 03:02:48;;;;;;;8.10;3.88;;;;;;;;;;20998295;28;20098;-64
2023/07/28 03:12:49;;;;;;;6.28;4.30;;;;;;;;;;20997208;28;20086;-64
2023/07/28 03:22:51;;;;;;;5.63;3.80;;;;;;;;;;20998307;28;20048;-64
2023/07/28 03:32:52;;;;;;;7.88;4.07;;;;;;;;;;20995880;28;20054;-64
2023/07/28 03:42:53;;;;;;;7.15;3.83;;;;;;;;;;20995796;28;20132;-65
2023/07/28 03:52:54;;;;;;;9.82;4.32;;;;;;;;;;20995350;28;20051;-64
2023/07/28 04:02:55;;;;;;;6.40;3.63;;;;;;;;;;20996304;28;20533;-64
2023/07/28 04:12:56;;;;;;;6.28;4.20;;;;;;;;;;20994180;28;20063;-63
2023/07/28 04:22:57;;;;;;;8.30;4.57;;;;;;;;;;20994222;28;20049;-63
2023/07/28 04:32:59;;;;;;;8.77;3.92;;;;;;;;;;20995016;28;20052;-63
2023/07/28 04:43:00;;;;;;;11.48;4.82;;;;;;;;;;20999970;28;20052;-63
2023/07/28 04:53:01;;;;;;;10.88;4.55;;;;;;;;;;21010100;28;20045;-64
2023/07/28 05:03:02;;;;;;;10.10;4.38;;;;;;;;;;21009053;28;20458;-63
2023/07/28 05:13:06;;;;;;;9.38;4.45;;;;;;;;;;21006836;28;20052;-64
2023/07/28 05:23:07;;;;;;;6.85;3.95;;;;;;;;;;21007625;28;20045;-64
2023/07/28 05:33:08;;;;;;;8.15;3.80;;;;;;;;;;21006730;28;20500;-63
2023/07/28 05:43:09;;;;;;;11.02;4.38;;;;;;;;;;21006168;28;20106;-63
2023/07/28 05:53:10;;;;;;;8.52;4.25;;;;;;;;;;21004563;28;20045;-65
2023/07/28 06:03:12;;;;;;;11.13;4.25;;;;;;;;;;21004376;28;20040;-64
2023/07/28 06:13:13;;;;;;;8.50;4.25;;;;;;;;;;21003380;28;20048;-64
2023/07/28 06:23:14;;;;;;;7.97;4.00;;;;;;;;;;21001426;28;20041;-64
2023/07/28 06:33:15;;;;;;;7.22;3.85;;;;;;;;;;21000400;28;20049;-63
2023/07/28 06:43:18;;;;;;;9.68;3.80;;;;;;;;;;21000889;28;20044;-63
2023/07/28 06:53:19;;;;;;;10.85;4.10;;;;;;;;;;20999808;28;20047;-63
2023/07/28 07:03:20;;;;;;;9.77;4.32;;;;;;;;;;20998607;28;20051;-64
2023/07/28 07:13:21;;;;;;;12.27;4.65;;;;;;;;;;20996958;28;20059;-64
2023/07/28 07:23:24;;;;;;;15.98;5.10;;;;;;;;;;20997763;28;20041;-64
2023/07/28 07:33:25;;;;;;;16.90;5.32;;;;;;;;;;20996989;28;20478;-64
2023/07/28 07:43:26;;;;;;;12.82;4.68;;;;;;;;;;20995078;28;20048;-63
2023/07/28 07:53:27;;;;;;;20.58;5.22;;;;;;;;;;20995540;28;20396;-64
2023/07/28 08:03:28;;;;;;;13.15;5.50;;;;;;;;;;20995785;28;20493;-64
2023/07/28 08:13:29;;;;;;;8.73;4.07;;;;;;;;;;20993534;28;20048;-64
2023/07/28 08:23:30;;;;;;;9.30;3.72;;;;;;;;;;21011039;28;20523;-64
2023/07/28 08:33:32;;;;;;;10.98;4.05;;;;;;;;;;21008824;28;20048;-65
2023/07/28 08:43:33;;;;;;;16.23;4.07;;;;;;;;;;21009768;28;20044;-64
2023/07/28 08:53:35;;;;;;;14.18;3.90;;;;;;;;;;21008618;28;20041;-65
2023/07/28 09:03:40;;;;;;;13.68;4.00;;;;;;;;;;21006831;28;20087;-64
2023/07/28 09:13:42;;;;;;;10.40;4.60;;;;;;;;;;21006455;28;20218;-65
2023/07/28 09:23:45;;;;;;;7.85;3.90;;;;;;;;;;21005801;28;20041;-65
2023/07/28 09:33:46;;;;;;;5.43;3.42;;;;;;;;;;21005262;28;20456;-64
2023/07/28 09:43:49;;;;;;;7.22;4.13;;;;;;;;;;21005497;28;20497;-65
2023/07/28 09:53:54;;;;;;;10.63;4.93;;;;;;;;;;21004613;28;20049;-64
2023/07/28 10:03:55;;;;;;;6.87;3.60;;;;;;;;;;21003875;28;20044;-66
2023/07/28 10:13:56;;;;;;;9.18;3.70;;;;;;;;;;21001963;28;20413;-65
2023/07/28 10:23:58;;;;;;;10.48;4.20;;;;;;;;;;21001858;28;20135;-65
2023/07/28 10:33:59;;;;;;;7.72;3.80;;;;;;;;;;20999963;28;20474;-65
2023/07/28 10:44:00;;;;;;;9.75;3.90;;;;;;;;;;21000473;28;20052;-65
2023/07/28 10:54:02;;;;;;;20.70;13.50;;;;;;;;;;20999596;28;20056;-64
2023/07/28 11:04:08;;;;;;;14.85;10.00;;;;;;;;;;20998895;28;20054;-65
2023/07/28 11:14:10;;;;;;;6.55;3.95;;;;;;;;;;20997148;28;20505;-65
2023/07/28 11:24:11;;;;;;;5.65;3.25;;;;;;;;;;20998110;28;20400;-63
2023/07/28 11:34:16;;;;;;;5.90;3.97;;;;;;;;;;20997763;28;20059;-63
2023/07/28 11:44:17;;;;;;;6.77;3.50;;;;;;;;;;20997484;28;20182;-64
2023/07/28 11:54:21;;;;;;;6.60;3.60;;;;;;;;;;20996201;28;20137;-63
2023/07/28 12:04:23;;;;;;;5.22;3.65;;;;;;;;;;20995102;28;20075;-65
2023/07/28 12:14:34;;;;;;;4.45;3.28;;;;;;;;;;20993134;28;20126;-65
2023/07/28 12:24:35;;;;;;;4.43;3.33;;;;;;;;;;20985069;28;20049;-65
2023/07/28 12:34:36;;;;;;;4.68;3.15;;;;;;;;;;20991127;28;20047;-66
2023/07/28 12:44:38;;;;;;;5.72;3.83;;;;;;;;;;20994855;28;20041;-66
2023/07/28 12:54:39;;;;;;;8.95;3.90;;;;;;;;;;20990217;28;20080;-66
2023/07/28 13:04:40;;;;;;;7.53;4.00;;;;;;;;;;20991295;28;20374;-65
2023/07/28 13:14:41;;;;;;;4.63;3.40;;;;;;;;;;21004413;28;20140;-65
2023/07/28 13:24:43;;;;;;;6.25;3.20;;;;;;;;;;21006485;28;20048;-65
2023/07/28 13:34:45;;;;;;;7.00;3.65;;;;;;;;;;21006577;28;20052;-66
2023/07/28 13:44:46;;;;;;;6.63;3.47;;;;;;;;;;21006939;28;20052;-64
2023/07/28 13:54:48;;;;;;;5.50;3.28;;;;;;;;;;21003429;28;20040;-65
2023/07/28 14:04:49;;;;;;;6.88;3.13;;;;;;;;;;21004156;28;20076;-67
2023/07/28 14:14:50;;;;;;;6.05;3.15;;;;;;;;;;21002093;28;20098;-65
2023/07/28 14:24:51;;;;;;;5.57;3.83;;;;;;;;;;21002592;28;20044;-67
2023/07/28 14:34:53;;;;;;;6.95;3.50;;;;;;;;;;21001646;28;20060;-66
2023/07/28 14:44:54;;;;;;;5.63;3.60;;;;;;;;;;21001200;28;20448;-66
2023/07/28 14:54:55;;;;;;;5.07;3.13;;;;;;;;;;20999104;28;20044;-66
2023/07/28 15:04:56;;;;;;;4.90;3.03;;;;;;;;;;20999544;28;20041;-67
2023/07/28 15:14:57;;;;;;;4.72;3.08;;;;;;;;;;20997644;28;20060;-66
2023/07/28 15:24:58;;;;;;;9.07;3.75;;;;;;;;;;20996218;28;20048;-67
2023/07/28 15:34:59;;;;;;;6.57;3.05;;;;;;;;;;20996337;28;20044;-66
2023/07/28 15:45:00;;;;;;;5.85;2.92;;;;;;;;;;20996003;28;20048;-67
2023/07/28 15:55:03;;;;;;;5.70;3.20;;;;;;;;;;20995606;28;20041;-67
2023/07/28 16:05:04;;;;;;;5.05;2.65;;;;;;;;;;20996301;28;20409;-67
2023/07/28 16:15:06;;;;;;;4.15;2.70;;;;;;;;;;20994522;28;20053;-67
2023/07/28 16:25:07;;;;;;;3.92;3.05;;;;;;;;;;20995524;28;20041;-68
2023/07/28 16:35:08;;;;;;;5.50;3.35;;;;;;;;;;20995123;28;20118;-67
2023/07/28 16:45:09;;;;;;;4.68;2.70;;;;;;;;;;21010748;28;20052;-67
2023/07/28 16:55:11;;;;;;;8.13;3.40;;;;;;;;;;21009999;28;20482;-66
2023/07/28 17:05:12;;;;;;;4.20;3.13;;;;;;;;;;21008909;28;20143;-66
2023/07/28 17:15:13;;;;;;;5.53;3.10;;;;;;;;;;21006651;28;20052;-66
2023/07/28 17:25:14;;;;;;;5.43;3.65;;;;;;;;;;21005189;28;20036;-70
2023/07/28 17:35:16;;;;;;;5.25;3.58;;;;;;;;;;21006420;28;20541;-64
2023/07/28 17:45:17;;;;;;;6.25;4.13;;;;;;;;;;21005274;28;20051;-65
2023/07/28 17:55:20;;;;;;;5.13;3.67;;;;;;;;;;21003810;28;20052;-63
2023/07/28 18:05:21;;;;;;;6.10;3.53;;;;;;;;;;21002710;28;20119;-62
2023/07/28 18:15:22;;;;;;;6.07;4.18;;;;;;;;;;21004196;28;20053;-62
2023/07/28 18:25:23;;;;;;;6.22;3.80;;;;;;;;;;21002744;28;20063;-62
2023/07/28 18:35:24;;;;;;;7.35;4.05;;;;;;;;;;21001770;28;20045;-70
2023/07/28 18:45:25;;;;;;;7.28;4.07;;;;;;;;;;21001205;28;20041;-68
2023/07/28 18:55:26;;;;;;;4.72;3.60;;;;;;;;;;20999637;28;20541;-65
2023/07/28 19:05:28;;;;;;;7.43;4.65;;;;;;;;;;20998408;28;20125;-65
2023/07/28 19:15:29;;;;;;;8.70;4.55;;;;;;;;;;20997222;28;20059;-65
2023/07/28 19:25:31;;;;;;;8.02;4.63;;;;;;;;;;20996996;28;20048;-66
2023/07/28 19:35:32;;;;;;;10.93;5.20;;;;;;;;;;20997818;28;20213;-66
2023/07/28 19:45:33;;;;;;;7.68;5.10;;;;;;;;;;20997277;28;20044;-65
2023/07/28 19:55:34;;;;;;;9.82;5.35;;;;;;;;;;20996567;28;20082;-65
2023/07/28 20:05:35;;;;;;;8.68;6.10;;;;;;;;;;20996125;28;20083;-64
2023/07/28 20:15:36;;;;;;;8.48;5.60;;;;;;;;;;21004818;28;20486;-65
2023/07/28 20:25:38;;;;;;;11.35;6.28;;;;;;;;;;21012304;28;20514;-65
2023/07/28 20:35:39;;;;;;;11.00;6.22;;;;;;;;;;21011921;28;20048;-65
2023/07/28 20:45:40;;;;;;;8.30;6.07;;;;;;;;;;21010317;28;20048;-65
2023/07/28 20:55:41;;;;;;;8.85;5.47;;;;;;;;;;21008199;28;20040;-64
2023/07/28 21:05:42;;;;;;;7.30;5.35;;;;;;;;;;21007844;28;20048;-65
2023/07/28 21:15:44;;;;;;;8.50;4.72;;;;;;;;;;21006759;28;20082;-64
2023/07/28 21:25:45;;;;;;;7.75;5.35;;;;;;;;;;21003211;28;20153;-65
2023/07/28 21:35:46;;;;;;;5.80;4.57;;;;;;;;;;21005251;28;20406;-65
2023/07/28 21:45:48;;;;;;;6.85;5.20;;;;;;;;;;21004696;28;20502;-64
2023/07/28 21:55:49;;;;;;;7.78;4.93;;;;;;;;;;21003583;28;20041;-64
2023/07/28 22:05:50;;;;;;;8.38;4.82;;;;;;;;;;21015167;28;20108;-65
2023/07/28 22:15:52;;;;;;;6.57;4.93;;;;;;;;;;21083294;28;20059;-64
2023/07/28 22:25:53;;;;;;;8.45;4.95;;;;;;;;;;21085065;28;20504;-65
2023/07/28 22:35:55;;;;;;;7.65;5.07;;;;;;;;;;21084244;28;20048;-65
2023/07/28 22:45:57;;;;;;;5.95;4.55;;;;;;;;;;21083708;28;20055;-65
2023/07/28 22:55:58;;;;;;;6.57;5.13;;;;;;;;;;21083004;28;20393;-64
2023/07/28 23:06:00;;;;;;;12.60;6.38;;;;;;;;;;21082464;28;20464;-64
2023/07/28 23:16:01;;;;;;;6.43;4.97;;;;;;;;;;21080302;28;20051;-65
2023/07/28 23:26:02;;;;;;;10.77;5.53;;;;;;;;;;21081097;28;20094;-64
2023/07/28 23:36:04;;;;;;;9.00;5.93;;;;;;;;;;21081406;28;20051;-64
2023/07/28 23:46:05;;;;;;;9.23;4.75;;;;;;;;;;21080514;28;20092;-64
2023/07/28 23:56:06;;;;;;;8.77;6.63;;;;;;;;;;21079565;28;20044;-64
